TimeMDT,TemperatureF,Dew PointF,Humidity,Sea Level PressureIn,VisibilityMPH,Wind Direction,Wind SpeedMPH,Gust SpeedMPH,PrecipitationIn,Events,Conditions,WindDirDegrees,DateUTC
12:00 AM,27.7,22.1,80,30.26,-9999.0,NNE,8.1,-,N/A,,Unknown,30,2012-10-11 06:00:00
1:00 AM,27.7,21.9,79,30.26,-9999.0,NNE,6.9,-,N/A,,Unknown,30,2012-10-11 07:00:00
2:00 AM,27.1,22.1,81,30.26,-9999.0,NNE,4.6,-,N/A,,Unknown,30,2012-10-11 08:00:00
3:00 AM,26.8,21.9,82,30.26,-9999.0,NNE,5.8,-,N/A,,Unknown,30,2012-10-11 09:00:00
4:00 AM,26.8,22.3,83,30.26,-9999.0,NE,3.5,-,N/A,,Unknown,50,2012-10-11 10:00:00
5:00 AM,26.8,22.5,84,30.25,-9999.0,ENE,3.5,-,N/A,,Unknown,60,2012-10-11 11:00:00
6:00 AM,26.6,22.6,85,30.25,-9999.0,ENE,2.3,-,N/A,,Unknown,60,2012-10-11 12:00:00
7:00 AM,26.6,22.8,86,30.23,-9999.0,ENE,3.5,-,N/A,,Unknown,70,2012-10-11 13:00:00
8:00 AM,24.8,21.7,88,30.22,-9999.0,Calm,Calm,-,N/A,,Unknown,0,2012-10-11 14:00:00
9:00 AM,23.9,21.7,91,30.22,-9999.0,Calm,Calm,-,N/A,,Unknown,0,2012-10-11 15:00:00
10:00 AM,28.8,23.0,79,30.19,-9999.0,SSW,6.9,-,N/A,,Unknown,210,2012-10-11 16:00:00
11:00 AM,31.6,21.9,67,30.15,-9999.0,WSW,5.8,-,N/A,,Unknown,240,2012-10-11 17:00:00
12:00 PM,38.1,23.5,56,30.11,-9999.0,SW,9.2,-,N/A,,Unknown,230,2012-10-11 18:00:00
3:00 PM,49.8,28.4,44,29.97,-9999.0,SW,8.1,-,N/A,,Unknown,220,2012-10-11 21:00:00
4:00 PM,50.2,28.9,44,29.96,-9999.0,SW,8.1,-,N/A,,Unknown,220,2012-10-11 22:00:00
5:00 PM,50.9,28.8,43,29.95,-9999.0,SW,8.1,-,N/A,,Unknown,230,2012-10-11 23:00:00
6:00 PM,49.6,29.1,45,29.93,-9999.0,SW,3.5,-,N/A,,Unknown,230,2012-10-12 00:00:00
7:00 PM,43.7,28.9,56,29.94,-9999.0,WSW,2.3,-,N/A,,Unknown,240,2012-10-12 01:00:00
8:00 PM,41.5,29.3,62,29.93,-9999.0,SSW,3.5,-,N/A,,Unknown,210,2012-10-12 02:00:00
10:00 PM,37.6,28.8,70,29.90,-9999.0,SSW,3.5,-,N/A,,Unknown,210,2012-10-12 04:00:00
11:00 PM,35.4,28.0,75,29.88,-9999.0,SSW,2.3,-,N/A,,Unknown,200,2012-10-12 05:00:00